sensor_id;sensor_type;location;lat;lon;timestamp;pressure;altitude;pressure_sealevel;temperature;humidity
55217;BME280;41086;46.736;15.666;2023-05-07T00:01:10;98394.78;;;13.17;100.00
55217;BME280;41086;46.736;15.666;2023-05-07T00:04:28;98393.69;;;13.20;100.00
55217;BME280;41086;46.736;15.666;2023-05-07T00:07:46;98378.31;;;13.23;100.00
55217;BME280;41086;46.736;15.666;2023-05-07T00:11:04;98380.84;;;13.25;100.00
55217;BME280;41086;46.736;15.666;2023-05-07T00:14:21;98363.81;;;13.27;100.00
55217;BME280;41086;46.736;15.666;2023-05-07T00:17:39;98358.84;;;13.23;100.00
55217;BME280;41086;46.736;15.666;2023-05-07T00:20:57;98353.28;;;13.26;100.00
55217;BME280;41086;46.736;15.666;2023-05-07T00:24:14;98350.63;;;13.26;100.00
55217;BME280;41086;46.736;15.666;2023-05-07T00:27:32;98351.38;;;13.17;100.00
55217;BME280;41086;46.736;15.666;2023-05-07T00:30:49;98339.00;;;13.16;100.00
55217;BME280;41086;46.736;15.666;2023-05-07T00:34:06;98317.81;;;13.25;100.00
55217;BME280;41086;46.736;15.666;2023-05-07T00:37:24;98310.19;;;13.32;100.00
55217;BME280;41086;46.736;15.666;2023-05-07T00:40:41;98312.75;;;13.34;100.00
55217;BME280;41086;46.736;15.666;2023-05-07T00:43:58;98308.53;;;13.31;100.00
55217;BME280;41086;46.736;15.666;2023-05-07T00:47:16;98307.78;;;13.29;100.00
55217;BME280;41086;46.736;15.666;2023-05-07T00:50:34;98305.72;;;13.33;100.00
55217;BME280;41086;46.736;15.666;2023-05-07T00:53:51;98302.09;;;13.34;100.00
55217;BME280;41086;46.736;15.666;2023-05-07T00:57:10;98297.88;;;13.31;100.00
55217;BME280;41086;46.736;15.666;2023-05-07T01:00:28;98289.75;;;13.33;100.00
55217;BME280;41086;46.736;15.666;2023-05-07T01:03:46;98289.75;;;13.33;100.00
55217;BME280;41086;46.736;15.666;2023-05-07T01:07:04;98287.22;;;13.31;100.00
55217;BME280;41086;46.736;15.666;2023-05-07T01:10:22;98282.16;;;13.28;100.00
55217;BME280;41086;46.736;15.666;2023-05-07T01:13:40;98285.66;;;13.28;100.00
55217;BME280;41086;46.736;15.666;2023-05-07T01:16:59;98281.31;;;13.27;100.00
55217;BME280;41086;46.736;15.666;2023-05-07T01:20:19;98288.66;;;13.24;100.00
55217;BME280;41086;46.736;15.666;2023-05-07T01:23:38;98281.53;;;13.24;100.00
55217;BME280;41086;46.736;15.666;2023-05-07T01:26:55;98290.63;;;13.22;100.00
55217;BME280;41086;46.736;15.666;2023-05-07T01:30:13;98288.25;;;13.07;100.00
55217;BME280;41086;46.736;15.666;2023-05-07T01:33:32;98289.25;;;12.95;100.00
55217;BME280;41086;46.736;15.666;2023-05-07T01:36:51;98281.66;;;12.91;100.00
55217;BME280;41086;46.736;15.666;2023-05-07T01:40:09;98280.56;;;12.93;100.00
55217;BME280;41086;46.736;15.666;2023-05-07T01:43:28;98292.28;;;12.91;100.00
55217;BME280;41086;46.736;15.666;2023-05-07T01:46:46;98289.72;;;12.89;100.00
55217;BME280;41086;46.736;15.666;2023-05-07T01:50:05;98284.56;;;12.88;100.00
55217;BME280;41086;46.736;15.666;2023-05-07T01:53:23;98286.84;;;12.81;100.00
55217;BME280;41086;46.736;15.666;2023-05-07T01:56:40;98280.84;;;12.79;100.00
55217;BME280;41086;46.736;15.666;2023-05-07T01:59:58;98286.63;;;12.73;100.00
55217;BME280;41086;46.736;15.666;2023-05-07T02:03:15;98282.53;;;12.69;100.00
55217;BME280;41086;46.736;15.666;2023-05-07T02:06:46;98287.84;;;12.69;100.00
55217;BME280;41086;46.736;15.666;2023-05-07T02:10:05;98276.00;;;12.73;100.00
55217;BME280;41086;46.736;15.666;2023-05-07T02:13:23;98272.13;;;12.77;100.00
55217;BME280;41086;46.736;15.666;2023-05-07T02:16:41;98282.66;;;12.67;100.00
55217;BME280;41086;46.736;15.666;2023-05-07T02:20:01;98294.78;;;12.49;100.00
55217;BME280;41086;46.736;15.666;2023-05-07T02:23:18;98299.13;;;12.38;100.00
55217;BME280;41086;46.736;15.666;2023-05-07T02:26:36;98300.06;;;12.37;100.00
55217;BME280;41086;46.736;15.666;2023-05-07T02:29:53;98296.72;;;12.35;100.00
55217;BME280;41086;46.736;15.666;2023-05-07T02:33:11;98287.25;;;12.42;100.00
55217;BME280;41086;46.736;15.666;2023-05-07T02:36:30;98294.78;;;12.49;100.00
55217;BME280;41086;46.736;15.666;2023-05-07T02:39:55;98298.72;;;12.43;100.00
55217;BME280;41086;46.736;15.666;2023-05-07T02:43:13;98306.47;;;12.35;100.00
55217;BME280;41086;46.736;15.666;2023-05-07T02:46:33;98308.78;;;12.28;100.00
55217;BME280;41086;46.736;15.666;2023-05-07T02:49:56;98310.00;;;12.24;100.00
55217;BME280;41086;46.736;15.666;2023-05-07T02:53:13;98310.34;;;12.19;100.00
55217;BME280;41086;46.736;15.666;2023-05-07T02:56:31;98324.44;;;12.09;100.00
55217;BME280;41086;46.736;15.666;2023-05-07T02:59:48;98321.41;;;12.02;100.00
55217;BME280;41086;46.736;15.666;2023-05-07T03:03:07;98323.94;;;11.92;100.00
55217;BME280;41086;46.736;15.666;2023-05-07T03:06:25;98329.06;;;11.83;100.00
55217;BME280;41086;46.736;15.666;2023-05-07T03:09:43;98327.00;;;11.75;100.00
55217;BME280;41086;46.736;15.666;2023-05-07T03:13:00;98326.50;;;11.70;100.00
55217;BME280;41086;46.736;15.666;2023-05-07T03:16:19;98337.47;;;11.65;100.00
55217;BME280;41086;46.736;15.666;2023-05-07T03:19:37;98320.34;;;11.69;100.00
55217;BME280;41086;46.736;15.666;2023-05-07T03:22:54;98326.50;;;11.70;100.00
55217;BME280;41086;46.736;15.666;2023-05-07T03:26:11;98322.88;;;11.71;100.00
55217;BME280;41086;46.736;15.666;2023-05-07T03:29:29;98322.41;;;11.77;100.00
55217;BME280;41086;46.736;15.666;2023-05-07T03:32:46;98324.59;;;11.83;100.00
55217;BME280;41086;46.736;15.666;2023-05-07T03:36:04;98327.38;;;11.82;100.00
55217;BME280;41086;46.736;15.666;2023-05-07T03:39:21;98325.34;;;11.85;100.00
55217;BME280;41086;46.736;15.666;2023-05-07T03:42:39;98326.09;;;11.87;100.00
55217;BME280;41086;46.736;15.666;2023-05-07T03:45:57;98331.91;;;11.92;100.00
55217;BME280;41086;46.736;15.666;2023-05-07T03:49:17;98336.97;;;11.95;100.00
55217;BME280;41086;46.736;15.666;2023-05-07T03:52:34;98337.72;;;11.97;100.00
55217;BME280;41086;46.736;15.666;2023-05-07T03:55:54;98353.66;;;11.97;100.00
55217;BME280;41086;46.736;15.666;2023-05-07T03:59:12;98354.59;;;11.96;100.00
55217;BME280;41086;46.736;15.666;2023-05-07T04:02:32;98350.03;;;11.98;100.00
55217;BME280;41086;46.736;15.666;2023-05-07T04:05:51;98351.38;;;12.04;100.00
55217;BME280;41086;46.736;15.666;2023-05-07T04:09:08;98341.34;;;12.08;100.00
55217;BME280;41086;46.736;15.666;2023-05-07T04:12:28;98357.78;;;12.13;100.00
55217;BME280;41086;46.736;15.666;2023-05-07T04:15:45;98363.59;;;12.18;100.00
55217;BME280;41086;46.736;15.666;2023-05-07T04:19:05;98369.16;;;12.26;100.00
55217;BME280;41086;46.736;15.666;2023-05-07T04:22:24;98364.47;;;12.30;100.00
55217;BME280;41086;46.736;15.666;2023-05-07T04:25:42;98370.38;;;12.33;100.00
55217;BME280;41086;46.736;15.666;2023-05-07T04:29:13;98362.75;;;12.40;100.00
55217;BME280;41086;46.736;15.666;2023-05-07T04:32:31;98363.25;;;12.45;100.00
55217;BME280;41086;46.736;15.666;2023-05-07T04:35:48;98381.59;;;12.48;100.00
55217;BME280;41086;46.736;15.666;2023-05-07T04:39:06;98382.59;;;12.47;100.00
55217;BME280;41086;46.736;15.666;2023-05-07T04:42:26;98393.72;;;12.52;100.00
55217;BME280;41086;46.736;15.666;2023-05-07T04:45:44;98399.88;;;12.53;100.00
55217;BME280;41086;46.736;15.666;2023-05-07T04:49:02;98398.53;;;12.58;100.00
55217;BME280;41086;46.736;15.666;2023-05-07T04:52:20;98389.38;;;12.62;100.00
55217;BME280;41086;46.736;15.666;2023-05-07T04:55:38;98399.38;;;12.59;100.00
55217;BME280;41086;46.736;15.666;2023-05-07T04:58:55;98389.97;;;12.66;100.00
55217;BME280;41086;46.736;15.666;2023-05-07T05:02:14;98387.66;;;12.73;100.00
55217;BME280;41086;46.736;15.666;2023-05-07T05:05:32;98393.97;;;12.72;100.00
55217;BME280;41086;46.736;15.666;2023-05-07T05:08:50;98386.81;;;12.83;100.00
55217;BME280;41086;46.736;15.666;2023-05-07T05:12:07;98392.75;;;12.98;100.00
55217;BME280;41086;46.736;15.666;2023-05-07T05:15:27;98395.75;;;13.05;100.00
55217;BME280;41086;46.736;15.666;2023-05-07T05:18:47;98412.69;;;13.04;100.00
55217;BME280;41086;46.736;15.666;2023-05-07T05:22:08;98425.88;;;12.94;100.00
55217;BME280;41086;46.736;15.666;2023-05-07T05:25:25;98419.09;;;12.90;100.00
55217;BME280;41086;46.736;15.666;2023-05-07T05:28:43;98403.75;;;12.94;100.00
55217;BME280;41086;46.736;15.666;2023-05-07T05:32:03;98413.19;;;12.98;100.00
55217;BME280;41086;46.736;15.666;2023-05-07T05:35:21;98399.72;;;13.11;100.00
55217;BME280;41086;46.736;15.666;2023-05-07T05:38:39;98414.00;;;13.21;100.00
55217;BME280;41086;46.736;15.666;2023-05-07T05:41:58;98419.22;;;13.22;100.00
55217;BME280;41086;46.736;15.666;2023-05-07T05:45:16;98441.59;;;13.20;100.00
55217;BME280;41086;46.736;15.666;2023-05-07T05:48:35;98432.38;;;13.24;100.00
55217;BME280;41086;46.736;15.666;2023-05-07T05:51:54;98440.03;;;13.28;100.00
55217;BME280;41086;46.736;15.666;2023-05-07T05:55:14;98443.41;;;13.30;100.00
55217;BME280;41086;46.736;15.666;2023-05-07T05:58:32;98450.91;;;13.14;100.00
55217;BME280;41086;46.736;15.666;2023-05-07T06:01:53;98437.13;;;13.32;100.00
55217;BME280;41086;46.736;15.666;2023-05-07T06:05:11;98440.38;;;13.46;100.00
55217;BME280;41086;46.736;15.666;2023-05-07T06:08:29;98444.16;;;13.65;100.00
55217;BME280;41086;46.736;15.666;2023-05-07T06:11:47;98458.53;;;13.85;100.00
55217;BME280;41086;46.736;15.666;2023-05-07T06:15:05;98473.28;;;13.89;100.00
55217;BME280;41086;46.736;15.666;2023-05-07T06:18:22;98459.53;;;14.05;100.00
55217;BME280;41086;46.736;15.666;2023-05-07T06:21:40;98487.63;;;14.09;100.00
55217;BME280;41086;46.736;15.666;2023-05-07T06:24:57;98481.72;;;14.26;100.00
55217;BME280;41086;46.736;15.666;2023-05-07T06:28:16;98496.56;;;14.40;100.00
55217;BME280;41086;46.736;15.666;2023-05-07T06:31:33;98532.53;;;14.46;100.00
55217;BME280;41086;46.736;15.666;2023-05-07T06:34:55;98502.91;;;14.81;100.00
55217;BME280;41086;46.736;15.666;2023-05-07T06:38:13;98520.59;;;15.03;100.00
55217;BME280;41086;46.736;15.666;2023-05-07T06:41:31;98543.59;;;15.25;100.00
55217;BME280;41086;46.736;15.666;2023-05-07T06:44:55;98556.66;;;15.28;100.00
55217;BME280;41086;46.736;15.666;2023-05-07T06:48:13;98558.00;;;15.34;100.00
55217;BME280;41086;46.736;15.666;2023-05-07T06:51:41;98566.47;;;15.79;100.00
55217;BME280;41086;46.736;15.666;2023-05-07T06:54:59;98564.03;;;16.16;100.00
55217;BME280;41086;46.736;15.666;2023-05-07T06:58:16;98596.53;;;16.22;100.00
55217;BME280;41086;46.736;15.666;2023-05-07T07:01:34;98598.34;;;16.02;100.00
55217;BME280;41086;46.736;15.666;2023-05-07T07:04:53;98602.66;;;15.83;100.00
55217;BME280;41086;46.736;15.666;2023-05-07T07:08:10;98584.34;;;15.58;100.00
55217;BME280;41086;46.736;15.666;2023-05-07T07:11:28;98581.31;;;16.03;100.00
55217;BME280;41086;46.736;15.666;2023-05-07T07:14:45;98590.66;;;16.47;100.00
55217;BME280;41086;46.736;15.666;2023-05-07T07:18:04;98591.78;;;16.74;100.00
55217;BME280;41086;46.736;15.666;2023-05-07T07:21:22;98597.44;;;16.71;100.00
55217;BME280;41086;46.736;15.666;2023-05-07T07:24:40;98602.25;;;16.87;100.00
55217;BME280;41086;46.736;15.666;2023-05-07T07:27:59;98599.97;;;16.62;100.00
55217;BME280;41086;46.736;15.666;2023-05-07T07:31:17;98602.94;;;16.79;100.00
55217;BME280;41086;46.736;15.666;2023-05-07T07:34:36;98608.44;;;16.97;100.00
55217;BME280;41086;46.736;15.666;2023-05-07T07:37:53;98618.81;;;17.29;100.00
55217;BME280;41086;46.736;15.666;2023-05-07T07:41:10;98616.03;;;17.11;100.00
55217;BME280;41086;46.736;15.666;2023-05-07T07:44:27;98612.63;;;17.09;100.00
55217;BME280;41086;46.736;15.666;2023-05-07T07:47:49;98603.97;;;17.44;100.00
55217;BME280;41086;46.736;15.666;2023-05-07T07:51:07;98620.59;;;17.48;100.00
55217;BME280;41086;46.736;15.666;2023-05-07T07:54:25;98622.09;;;17.60;100.00
55217;BME280;41086;46.736;15.666;2023-05-07T07:57:43;98624.84;;;17.88;100.00
55217;BME280;41086;46.736;15.666;2023-05-07T08:01:01;98616.59;;;17.99;100.00
55217;BME280;41086;46.736;15.666;2023-05-07T08:04:19;98625.91;;;18.32;100.00
55217;BME280;41086;46.736;15.666;2023-05-07T08:07:36;98627.34;;;18.45;100.00
55217;BME280;41086;46.736;15.666;2023-05-07T08:10:54;98622.16;;;18.61;100.00
55217;BME280;41086;46.736;15.666;2023-05-07T08:14:18;98620.38;;;18.70;100.00
55217;BME280;41086;46.736;15.666;2023-05-07T08:17:37;98626.53;;;18.62;100.00
55217;BME280;41086;46.736;15.666;2023-05-07T08:20:55;98626.25;;;18.83;100.00
55217;BME280;41086;46.736;15.666;2023-05-07T08:24:16;98629.84;;;18.92;100.00
55217;BME280;41086;46.736;15.666;2023-05-07T08:27:35;98628.16;;;19.79;100.00
55217;BME280;41086;46.736;15.666;2023-05-07T08:30:53;98632.19;;;19.83;100.00
55217;BME280;41086;46.736;15.666;2023-05-07T08:34:10;98634.53;;;19.34;100.00
55217;BME280;41086;46.736;15.666;2023-05-07T08:37:31;98627.66;;;19.57;100.00
55217;BME280;41086;46.736;15.666;2023-05-07T08:40:50;98628.22;;;20.46;100.00
55217;BME280;41086;46.736;15.666;2023-05-07T08:44:11;98632.69;;;21.53;100.00
55217;BME280;41086;46.736;15.666;2023-05-07T08:47:29;98635.25;;;22.42;100.00
55217;BME280;41086;46.736;15.666;2023-05-07T08:50:51;98624.88;;;23.08;98.76
55217;BME280;41086;46.736;15.666;2023-05-07T08:54:10;98619.66;;;23.44;95.37
55217;BME280;41086;46.736;15.666;2023-05-07T08:57:28;98627.81;;;23.21;97.51
55217;BME280;41086;46.736;15.666;2023-05-07T09:00:47;98624.28;;;23.73;99.36
55217;BME280;41086;46.736;15.666;2023-05-07T09:04:05;98623.03;;;24.35;99.81
55217;BME280;41086;46.736;15.666;2023-05-07T09:07:25;98626.47;;;24.29;93.70
55217;BME280;41086;46.736;15.666;2023-05-07T09:10:43;98619.56;;;24.26;91.85
55217;BME280;41086;46.736;15.666;2023-05-07T09:14:02;98626.38;;;24.52;86.74
55217;BME280;41086;46.736;15.666;2023-05-07T09:17:25;98626.28;;;24.82;87.24
55217;BME280;41086;46.736;15.666;2023-05-07T09:20:43;98631.31;;;24.85;81.81
55217;BME280;41086;46.736;15.666;2023-05-07T09:24:00;98623.59;;;24.30;81.77
55217;BME280;41086;46.736;15.666;2023-05-07T09:27:25;98633.31;;;24.25;78.48
55217;BME280;41086;46.736;15.666;2023-05-07T09:30:44;98633.63;;;24.00;81.67
55217;BME280;41086;46.736;15.666;2023-05-07T09:34:04;98624.38;;;23.95;79.65
55217;BME280;41086;46.736;15.666;2023-05-07T09:37:25;98625.66;;;24.28;84.87
55217;BME280;41086;46.736;15.666;2023-05-07T09:40:43;98625.84;;;24.27;81.32
55217;BME280;41086;46.736;15.666;2023-05-07T09:44:03;98624.56;;;24.08;81.53
55217;BME280;41086;46.736;15.666;2023-05-07T09:47:29;98627.25;;;24.23;78.68
55217;BME280;41086;46.736;15.666;2023-05-07T09:50:51;98633.56;;;24.45;76.97
55217;BME280;41086;46.736;15.666;2023-05-07T09:54:16;98631.00;;;24.73;82.18
55217;BME280;41086;46.736;15.666;2023-05-07T09:57:38;98627.25;;;24.95;75.18
55217;BME280;41086;46.736;15.666;2023-05-07T10:00:59;98623.81;;;24.65;69.95
55217;BME280;41086;46.736;15.666;2023-05-07T10:04:20;98631.31;;;24.85;72.39
55217;BME280;41086;46.736;15.666;2023-05-07T10:07:38;98625.38;;;24.96;75.49
55217;BME280;41086;46.736;15.666;2023-05-07T10:10:59;98626.19;;;24.96;69.95
55217;BME280;41086;46.736;15.666;2023-05-07T10:14:19;98623.75;;;25.02;66.10
55217;BME280;41086;46.736;15.666;2023-05-07T10:17:38;98633.09;;;24.41;67.70
55217;BME280;41086;46.736;15.666;2023-05-07T10:20:58;98625.03;;;23.97;76.16
55217;BME280;41086;46.736;15.666;2023-05-07T10:24:26;98621.72;;;24.31;72.16
55217;BME280;41086;46.736;15.666;2023-05-07T10:27:46;98622.47;;;24.25;76.37
55217;BME280;41086;46.736;15.666;2023-05-07T10:34:44;98616.66;;;25.01;68.89
55217;BME280;41086;46.736;15.666;2023-05-07T10:38:04;98616.53;;;25.09;63.10
55217;BME280;41086;46.736;15.666;2023-05-07T10:41:25;98607.31;;;25.53;59.61
55217;BME280;41086;46.736;15.666;2023-05-07T10:44:43;98609.72;;;25.76;60.19
55217;BME280;41086;46.736;15.666;2023-05-07T10:48:14;98609.72;;;25.76;57.28
55217;BME280;41086;46.736;15.666;2023-05-07T10:52:18;98605.09;;;25.63;55.63
55217;BME280;41086;46.736;15.666;2023-05-07T10:59:46;98611.31;;;26.33;53.83
55217;BME280;41086;46.736;15.666;2023-05-07T11:03:10;98604.72;;;26.56;53.68
55217;BME280;41086;46.736;15.666;2023-05-07T11:10:52;98598.91;;;26.79;52.96
55217;BME280;41086;46.736;15.666;2023-05-07T11:14:47;98603.97;;;26.20;55.09
55217;BME280;41086;46.736;15.666;2023-05-07T11:18:14;98596.00;;;25.21;62.62
55217;BME280;41086;46.736;15.666;2023-05-07T11:21:39;98595.47;;;25.60;59.07
55217;BME280;41086;46.736;15.666;2023-05-07T11:25:17;98596.91;;;25.84;59.40
55217;BME280;41086;46.736;15.666;2023-05-07T11:28:45;98591.09;;;25.31;63.93
55217;BME280;41086;46.736;15.666;2023-05-07T11:32:02;98581.69;;;24.84;64.98
55217;BME280;41086;46.736;15.666;2023-05-07T11:35:27;98585.28;;;24.91;66.75
55217;BME280;41086;46.736;15.666;2023-05-07T11:38:48;98584.38;;;25.27;62.78
55217;BME280;41086;46.736;15.666;2023-05-07T11:42:06;98574.66;;;25.74;62.87
55217;BME280;41086;46.736;15.666;2023-05-07T11:45:32;98582.00;;;26.15;61.85
55217;BME280;41086;46.736;15.666;2023-05-07T11:48:52;98572.25;;;26.27;60.99
55217;BME280;41086;46.736;15.666;2023-05-07T11:52:10;98574.84;;;26.01;54.81
55217;BME280;41086;46.736;15.666;2023-05-07T11:55:30;98578.31;;;25.88;55.24
55217;BME280;41086;46.736;15.666;2023-05-07T11:58:47;98574.06;;;26.20;55.09
55217;BME280;41086;46.736;15.666;2023-05-07T12:02:06;98563.03;;;26.28;52.90
55217;BME280;41086;46.736;15.666;2023-05-07T12:05:23;98560.25;;;27.03;58.27
55217;BME280;41086;46.736;15.666;2023-05-07T12:08:46;98557.09;;;27.53;55.00
55217;BME280;41086;46.736;15.666;2023-05-07T12:12:06;98549.16;;;27.58;49.37
55217;BME280;41086;46.736;15.666;2023-05-07T12:15:27;98547.63;;;27.75;49.50
55217;BME280;41086;46.736;15.666;2023-05-07T12:18:45;98557.91;;;27.80;47.25
55217;BME280;41086;46.736;15.666;2023-05-07T12:22:03;98556.31;;;27.39;49.83
55217;BME280;41086;46.736;15.666;2023-05-07T12:25:36;98554.38;;;27.46;46.09
55217;BME280;41086;46.736;15.666;2023-05-07T12:28:54;98555.81;;;27.62;49.33
55217;BME280;41086;46.736;15.666;2023-05-07T12:32:19;98555.06;;;28.13;48.90
55217;BME280;41086;46.736;15.666;2023-05-07T12:35:39;98542.84;;;28.61;46.10
55217;BME280;41086;46.736;15.666;2023-05-07T12:39:04;98553.19;;;28.52;49.64
55217;BME280;41086;46.736;15.666;2023-05-07T12:42:26;98545.09;;;28.70;46.19
55217;BME280;41086;46.736;15.666;2023-05-07T12:45:43;98530.84;;;27.78;48.51
55217;BME280;41086;46.736;15.666;2023-05-07T12:49:01;98529.19;;;27.71;51.60
55217;BME280;41086;46.736;15.666;2023-05-07T12:52:18;98536.81;;;27.42;50.06
55217;BME280;41086;46.736;15.666;2023-05-07T12:55:43;98514.22;;;27.42;53.58
55217;BME280;41086;46.736;15.666;2023-05-07T12:59:07;98525.53;;;27.32;54.39
55217;BME280;41086;46.736;15.666;2023-05-07T13:02:31;98523.22;;;26.75;54.96
55217;BME280;41086;46.736;15.666;2023-05-07T13:05:49;98518.00;;;26.61;54.17
55217;BME280;41086;46.736;15.666;2023-05-07T13:09:17;98527.72;;;26.28;52.77
55217;BME280;41086;46.736;15.666;2023-05-07T13:12:34;98529.97;;;26.12;55.35
55217;BME280;41086;46.736;15.666;2023-05-07T13:15:52;98519.25;;;25.97;58.82
55217;BME280;41086;46.736;15.666;2023-05-07T13:19:09;98522.78;;;25.97;66.12
55217;BME280;41086;46.736;15.666;2023-05-07T13:22:27;98525.59;;;26.17;58.71
55217;BME280;41086;46.736;15.666;2023-05-07T13:25:44;98519.06;;;26.05;61.76
55217;BME280;41086;46.736;15.666;2023-05-07T13:29:01;98513.00;;;26.03;59.40
55217;BME280;41086;46.736;15.666;2023-05-07T13:32:19;98519.72;;;26.07;61.54
55217;BME280;41086;46.736;15.666;2023-05-07T13:35:36;98514.88;;;26.02;61.20
55217;BME280;41086;46.736;15.666;2023-05-07T13:38:54;98515.38;;;25.78;60.83
55217;BME280;41086;46.736;15.666;2023-05-07T13:42:11;98513.22;;;25.60;61.82
55217;BME280;41086;46.736;15.666;2023-05-07T13:45:29;98511.84;;;24.86;63.84
55217;BME280;41086;46.736;15.666;2023-05-07T13:48:47;98506.19;;;24.38;67.71
55217;BME280;41086;46.736;15.666;2023-05-07T13:52:04;98508.06;;;24.38;70.94
55217;BME280;41086;46.736;15.666;2023-05-07T13:55:23;98510.03;;;24.29;71.68
55217;BME280;41086;46.736;15.666;2023-05-07T13:58:47;98507.97;;;24.46;73.57
55217;BME280;41086;46.736;15.666;2023-05-07T14:02:17;98508.59;;;24.69;70.95
55217;BME280;41086;46.736;15.666;2023-05-07T14:05:35;98496.19;;;24.39;69.14
55217;BME280;41086;46.736;15.666;2023-05-07T14:08:54;98494.47;;;24.52;71.27
55217;BME280;41086;46.736;15.666;2023-05-07T14:12:11;98489.28;;;24.79;68.84
55217;BME280;41086;46.736;15.666;2023-05-07T14:15:28;98503.81;;;24.99;72.91
55217;BME280;41086;46.736;15.666;2023-05-07T14:18:46;98510.00;;;24.87;65.90
55217;BME280;41086;46.736;15.666;2023-05-07T14:22:03;98506.63;;;24.57;69.38
55217;BME280;41086;46.736;15.666;2023-05-07T14:25:20;98510.03;;;24.44;72.79
55217;BME280;41086;46.736;15.666;2023-05-07T14:28:41;98509.72;;;24.39;73.28
55217;BME280;41086;46.736;15.666;2023-05-07T14:32:03;98508.69;;;23.82;74.06
55217;BME280;41086;46.736;15.666;2023-05-07T14:35:21;98502.16;;;23.47;75.22
55217;BME280;41086;46.736;15.666;2023-05-07T14:38:38;98510.72;;;23.35;75.84
55217;BME280;41086;46.736;15.666;2023-05-07T14:41:56;98501.19;;;23.10;77.29
55217;BME280;41086;46.736;15.666;2023-05-07T14:45:14;98517.22;;;22.96;79.53
55217;BME280;41086;46.736;15.666;2023-05-07T14:48:31;98536.25;;;22.80;82.71
55217;BME280;41086;46.736;15.666;2023-05-07T14:51:48;98547.03;;;22.03;89.97
55217;BME280;41086;46.736;15.666;2023-05-07T14:55:06;98545.78;;;20.36;100.00
55217;BME280;41086;46.736;15.666;2023-05-07T14:58:23;98536.88;;;19.17;100.00
55217;BME280;41086;46.736;15.666;2023-05-07T15:01:41;98528.28;;;18.15;100.00
55217;BME280;41086;46.736;15.666;2023-05-07T15:05:02;98542.47;;;17.80;100.00
55217;BME280;41086;46.736;15.666;2023-05-07T15:08:20;98550.97;;;17.76;100.00
55217;BME280;41086;46.736;15.666;2023-05-07T15:11:37;98564.88;;;16.66;100.00
55217;BME280;41086;46.736;15.666;2023-05-07T15:14:55;98569.41;;;16.46;100.00
55217;BME280;41086;46.736;15.666;2023-05-07T15:18:14;98572.59;;;16.20;100.00
55217;BME280;41086;46.736;15.666;2023-05-07T15:21:32;98553.66;;;15.73;100.00
55217;BME280;41086;46.736;15.666;2023-05-07T15:24:52;98547.88;;;15.37;100.00
55217;BME280;41086;46.736;15.666;2023-05-07T15:28:09;98539.38;;;15.22;100.00
55217;BME280;41086;46.736;15.666;2023-05-07T15:31:26;98542.44;;;15.18;100.00
55217;BME280;41086;46.736;15.666;2023-05-07T15:34:44;98570.97;;;15.17;100.00
55217;BME280;41086;46.736;15.666;2023-05-07T15:38:02;98605.88;;;15.04;100.00
55217;BME280;41086;46.736;15.666;2023-05-07T15:41:20;98630.91;;;14.92;100.00
55217;BME280;41086;46.736;15.666;2023-05-07T15:44:39;98642.84;;;14.88;100.00
55217;BME280;41086;46.736;15.666;2023-05-07T15:47:57;98638.09;;;14.59;100.00
55217;BME280;41086;46.736;15.666;2023-05-07T15:51:15;98606.69;;;14.52;100.00
55217;BME280;41086;46.736;15.666;2023-05-07T15:54:34;98588.28;;;14.49;100.00
55217;BME280;41086;46.736;15.666;2023-05-07T15:57:52;98574.63;;;14.42;100.00
55217;BME280;41086;46.736;15.666;2023-05-07T16:01:11;98558.34;;;14.45;100.00
55217;BME280;41086;46.736;15.666;2023-05-07T16:04:28;98556.00;;;14.52;100.00
55217;BME280;41086;46.736;15.666;2023-05-07T16:07:45;98564.41;;;14.58;100.00
55217;BME280;41086;46.736;15.666;2023-05-07T16:11:03;98561.97;;;14.76;100.00
55217;BME280;41086;46.736;15.666;2023-05-07T16:14:21;98574.56;;;14.85;100.00
55217;BME280;41086;46.736;15.666;2023-05-07T16:17:38;98574.41;;;14.87;100.00
55217;BME280;41086;46.736;15.666;2023-05-07T16:20:56;98574.22;;;14.79;100.00
55217;BME280;41086;46.736;15.666;2023-05-07T16:24:14;98578.84;;;14.77;100.00
55217;BME280;41086;46.736;15.666;2023-05-07T16:27:31;98573.56;;;14.66;100.00
55217;BME280;41086;46.736;15.666;2023-05-07T16:30:49;98572.78;;;14.54;100.00
55217;BME280;41086;46.736;15.666;2023-05-07T16:34:06;98550.09;;;14.48;100.00
55217;BME280;41086;46.736;15.666;2023-05-07T16:37:24;98556.91;;;14.41;100.00
55217;BME280;41086;46.736;15.666;2023-05-07T16:40:41;98562.00;;;14.44;100.00
55217;BME280;41086;46.736;15.666;2023-05-07T16:43:58;98571.22;;;14.40;100.00
55217;BME280;41086;46.736;15.666;2023-05-07T16:47:16;98582.50;;;14.32;100.00
55217;BME280;41086;46.736;15.666;2023-05-07T16:50:33;98578.59;;;14.48;100.00
55217;BME280;41086;46.736;15.666;2023-05-07T16:53:51;98594.00;;;14.55;100.00
55217;BME280;41086;46.736;15.666;2023-05-07T16:57:08;98603.66;;;14.56;100.00
55217;BME280;41086;46.736;15.666;2023-05-07T17:00:26;98612.78;;;14.54;100.00
55217;BME280;41086;46.736;15.666;2023-05-07T17:03:55;98612.78;;;14.54;100.00
55217;BME280;41086;46.736;15.666;2023-05-07T17:07:12;98620.28;;;14.49;100.00
55217;BME280;41086;46.736;15.666;2023-05-07T17:10:30;98617.91;;;14.34;100.00
55217;BME280;41086;46.736;15.666;2023-05-07T17:13:48;98620.06;;;14.40;100.00
55217;BME280;41086;46.736;15.666;2023-05-07T17:17:06;98622.59;;;14.42;100.00
55217;BME280;41086;46.736;15.666;2023-05-07T17:20:26;98631.13;;;14.36;100.00
55217;BME280;41086;46.736;15.666;2023-05-07T17:23:44;98621.03;;;14.39;100.00